createdAt,value
2019-04-28T00:00:41.160Z,973.77
2019-04-28T00:01:41.083Z,973.76
2019-04-28T00:02:40.835Z,973.80
2019-04-28T00:03:41.845Z,973.81
2019-04-28T00:04:41.563Z,973.83
2019-04-28T00:05:41.512Z,973.84
2019-04-28T00:06:41.641Z,973.85
2019-04-28T00:07:41.102Z,973.88
2019-04-28T00:08:39.993Z,973.88
2019-04-28T00:09:41.500Z,973.90
2019-04-28T00:10:41.725Z,973.90
2019-04-28T00:11:41.573Z,973.94
2019-04-28T00:12:41.287Z,973.95
2019-04-28T00:13:41.648Z,973.93
2019-04-28T00:14:41.629Z,973.94
2019-04-28T00:15:41.569Z,973.91
2019-04-28T00:16:41.129Z,973.95
2019-04-28T00:17:41.899Z,973.97
2019-04-28T00:18:41.573Z,974.02
2019-04-28T00:19:40.849Z,974.04
2019-04-28T00:20:40.904Z,974.01
2019-04-28T00:21:41.475Z,974.03
2019-04-28T00:22:41.746Z,974.05
2019-04-28T00:23:39.944Z,974.02
2019-04-28T00:24:41.651Z,974.00
2019-04-28T00:25:41.085Z,973.99
2019-04-28T00:26:40.954Z,974.00
2019-04-28T00:27:41.535Z,973.99
2019-04-28T00:28:41.663Z,973.97
2019-04-28T00:29:43.569Z,973.97
2019-04-28T00:30:41.660Z,973.97
2019-04-28T00:31:41.414Z,973.97
2019-04-28T00:32:41.661Z,973.96
2019-04-28T00:33:41.057Z,973.96
2019-04-28T00:34:41.216Z,973.98
2019-04-28T00:35:41.401Z,973.96
2019-04-28T00:36:41.251Z,973.99
2019-04-28T00:37:41.685Z,973.97
2019-04-28T00:38:41.508Z,973.97
2019-04-28T00:39:40.975Z,973.97
2019-04-28T00:40:41.349Z,973.99
2019-04-28T00:41:41.858Z,974.01
2019-04-28T00:42:41.391Z,974.01
2019-04-28T00:43:41.668Z,974.03
2019-04-28T00:44:41.595Z,974.03
2019-04-28T00:45:41.349Z,974.02
2019-04-28T00:46:41.045Z,973.99
2019-04-28T00:47:41.280Z,973.99
2019-04-28T00:48:40.909Z,974.01
2019-04-28T00:49:41.793Z,974.00
2019-04-28T00:50:41.392Z,974.01
2019-04-28T00:51:41.519Z,973.98
2019-04-28T00:52:41.762Z,973.99
2019-04-28T00:53:40.882Z,974.00
2019-04-28T00:54:39.837Z,973.98
2019-04-28T00:55:41.581Z,973.99
2019-04-28T00:56:41.541Z,974.02
2019-04-28T00:57:40.952Z,974.00
2019-04-28T00:58:41.615Z,974.01
2019-04-28T00:59:52.079Z,974.01
2019-04-28T01:00:41.438Z,974.05
2019-04-28T01:01:40.689Z,974.02
2019-04-28T01:02:41.328Z,974.00
2019-04-28T01:03:41.757Z,974.02
2019-04-28T01:04:41.333Z,974.01
2019-04-28T01:05:41.138Z,974.01
2019-04-28T01:06:39.800Z,974.01
2019-04-28T01:07:41.368Z,974.02
2019-04-28T01:08:39.828Z,974.03
2019-04-28T01:09:41.494Z,974.06
2019-04-28T01:10:40.996Z,974.08
2019-04-28T01:11:41.433Z,974.06
2019-04-28T01:12:41.080Z,974.05
2019-04-28T01:13:41.809Z,974.05
2019-04-28T01:14:40.961Z,974.05
2019-04-28T01:15:39.800Z,974.09
2019-04-28T01:16:40.156Z,974.05
2019-04-28T01:17:39.877Z,974.07
2019-04-28T01:18:40.496Z,974.06
2019-04-28T01:19:39.907Z,974.03
2019-04-28T01:20:39.769Z,974.05
2019-04-28T01:21:41.522Z,974.06
2019-04-28T01:22:40.151Z,974.05
2019-04-28T01:23:40.287Z,974.05
2019-04-28T01:24:39.877Z,974.05
2019-04-28T01:25:40.170Z,974.07
2019-04-28T01:26:41.647Z,974.09
2019-04-28T01:27:40.273Z,974.09
2019-04-28T01:28:39.901Z,974.11
2019-04-28T01:29:40.266Z,974.07
2019-04-28T01:30:40.259Z,974.11
2019-04-28T01:31:39.735Z,974.13
2019-04-28T01:32:40.024Z,974.13
2019-04-28T01:33:40.669Z,974.12
2019-04-28T01:34:40.080Z,974.19
2019-04-28T01:35:39.819Z,974.13
2019-04-28T01:36:40.027Z,974.18
2019-04-28T01:37:40.756Z,974.20
2019-04-28T01:38:40.159Z,974.18
2019-04-28T01:39:41.279Z,974.18
2019-04-28T01:40:41.316Z,974.21
2019-04-28T01:41:39.884Z,974.19
2019-04-28T01:42:41.234Z,974.20
2019-04-28T01:43:41.650Z,974.21
2019-04-28T01:44:39.700Z,974.22
2019-04-28T01:45:39.784Z,974.23
2019-04-28T01:46:39.986Z,974.19
2019-04-28T01:47:40.491Z,974.21
2019-04-28T01:48:39.904Z,974.26
2019-04-28T01:49:40.560Z,974.19
2019-04-28T01:50:40.071Z,974.22
2019-04-28T01:51:41.456Z,974.21
2019-04-28T01:52:40.108Z,974.23
2019-04-28T01:53:39.706Z,974.23
2019-04-28T01:54:40.272Z,974.23
2019-04-28T01:55:41.099Z,974.25
2019-04-28T01:56:40.382Z,974.24
2019-04-28T01:57:40.144Z,974.26
2019-04-28T01:58:40.347Z,974.26
2019-04-28T01:59:40.339Z,974.26
2019-04-28T02:00:40.570Z,974.26
2019-04-28T02:01:40.021Z,974.26
2019-04-28T02:02:40.742Z,974.25
2019-04-28T02:03:40.452Z,974.25
2019-04-28T02:04:40.202Z,974.26
2019-04-28T02:05:40.520Z,974.28
2019-04-28T02:06:39.972Z,974.27
2019-04-28T02:07:40.755Z,974.24
2019-04-28T02:08:39.969Z,974.24
2019-04-28T02:09:39.700Z,974.31
2019-04-28T02:10:40.147Z,974.32
2019-04-28T02:11:41.208Z,974.32
2019-04-28T02:12:40.320Z,974.31
2019-04-28T02:13:39.939Z,974.33
2019-04-28T02:14:40.412Z,974.33
2019-04-28T02:15:40.030Z,974.38
2019-04-28T02:16:40.505Z,974.36
2019-04-28T02:17:40.168Z,974.39
2019-04-28T02:18:39.993Z,974.36
2019-04-28T02:19:41.023Z,974.34
2019-04-28T02:20:39.834Z,974.35
2019-04-28T02:21:39.649Z,974.32
2019-04-28T02:22:40.090Z,974.34
2019-04-28T02:23:39.735Z,974.30
2019-04-28T02:24:40.484Z,974.30
2019-04-28T02:25:39.919Z,974.34
2019-04-28T02:26:40.285Z,974.36
2019-04-28T02:27:40.074Z,974.33
2019-04-28T02:28:40.753Z,974.33
2019-04-28T02:29:41.456Z,974.35
2019-04-28T02:30:47.873Z,974.34
2019-04-28T02:31:41.921Z,974.33
2019-04-28T02:32:40.698Z,974.36
2019-04-28T02:33:40.787Z,974.34
2019-04-28T02:34:41.127Z,974.30
2019-04-28T02:35:41.807Z,974.36
2019-04-28T02:36:40.749Z,974.35
2019-04-28T02:37:40.565Z,974.39
2019-04-28T02:38:41.457Z,974.42
2019-04-28T02:39:40.961Z,974.41
2019-04-28T02:40:40.588Z,974.45
2019-04-28T02:41:41.096Z,974.43
2019-04-28T02:42:40.987Z,974.43
2019-04-28T02:43:40.973Z,974.48
2019-04-28T02:44:40.417Z,974.44
2019-04-28T02:45:41.245Z,974.51
2019-04-28T02:46:40.828Z,974.48
2019-04-28T02:47:42.004Z,974.51
2019-04-28T02:48:40.466Z,974.52
2019-04-28T02:49:40.593Z,974.52
2019-04-28T02:50:41.111Z,974.54
2019-04-28T02:51:40.788Z,974.57
2019-04-28T02:52:41.515Z,974.54
2019-04-28T02:53:40.850Z,974.57
2019-04-28T02:54:40.457Z,974.52
2019-04-28T02:55:41.199Z,974.54
2019-04-28T02:56:40.922Z,974.55
2019-04-28T02:57:40.662Z,974.55
2019-04-28T02:58:41.557Z,974.56
2019-04-28T02:59:40.882Z,974.54
2019-04-28T03:00:41.215Z,974.58
2019-04-28T03:01:40.905Z,974.54
2019-04-28T03:02:41.484Z,974.53
2019-04-28T03:03:40.847Z,974.60
2019-04-28T03:04:40.784Z,974.60
2019-04-28T03:05:41.206Z,974.57
2019-04-28T03:06:40.672Z,974.58
2019-04-28T03:07:41.011Z,974.59
2019-04-28T03:08:40.424Z,974.62
2019-04-28T03:09:40.337Z,974.62
2019-04-28T03:10:41.007Z,974.63
2019-04-28T03:11:42.779Z,974.62
2019-04-28T03:12:41.474Z,974.69
2019-04-28T03:13:41.223Z,974.65
2019-04-28T03:14:43.379Z,974.66
2019-04-28T03:15:41.462Z,974.68
2019-04-28T03:16:40.972Z,974.64
2019-04-28T03:17:40.692Z,974.64
2019-04-28T03:18:41.241Z,974.61
2019-04-28T03:19:41.520Z,974.66
2019-04-28T03:20:41.577Z,974.64
2019-04-28T03:21:41.609Z,974.65
2019-04-28T03:22:40.768Z,974.66
2019-04-28T03:23:40.562Z,974.63
2019-04-28T03:24:41.332Z,974.63
2019-04-28T03:25:40.720Z,974.64
2019-04-28T03:26:41.362Z,974.64
2019-04-28T03:27:40.461Z,974.62
2019-04-28T03:28:41.402Z,974.66
2019-04-28T03:29:40.373Z,974.66
2019-04-28T03:30:43.401Z,974.63
2019-04-28T03:32:07.160Z,974.63
2019-04-28T03:32:47.175Z,974.63
2019-04-28T03:33:47.985Z,974.62
2019-04-28T03:34:43.666Z,974.60
2019-04-28T03:35:43.541Z,974.62
2019-04-28T03:36:40.841Z,974.62
2019-04-28T03:37:41.405Z,974.58
2019-04-28T03:38:40.585Z,974.55
2019-04-28T03:39:40.532Z,974.53
2019-04-28T03:40:41.474Z,974.54
2019-04-28T03:41:40.525Z,974.50
2019-04-28T03:42:41.106Z,974.52
2019-04-28T03:43:40.577Z,974.50
2019-04-28T03:44:41.535Z,974.52
2019-04-28T03:45:40.996Z,974.54
2019-04-28T03:46:41.302Z,974.55
2019-04-28T03:47:40.720Z,974.53
2019-04-28T03:48:40.945Z,974.49
2019-04-28T03:49:40.596Z,974.52
2019-04-28T03:50:41.394Z,974.52
2019-04-28T03:51:40.712Z,974.53
2019-04-28T03:52:41.480Z,974.51
2019-04-28T03:53:41.026Z,974.54
2019-04-28T03:54:40.961Z,974.52
2019-04-28T03:55:41.665Z,974.51
2019-04-28T03:56:41.278Z,974.52
2019-04-28T03:57:41.183Z,974.55
2019-04-28T03:58:40.665Z,974.53
2019-04-28T03:59:43.052Z,974.57
2019-04-28T04:00:40.848Z,974.57
2019-04-28T04:01:53.038Z,974.53
2019-04-28T04:02:41.139Z,974.57
2019-04-28T04:03:41.541Z,974.53
2019-04-28T04:04:41.489Z,974.55
2019-04-28T04:05:40.657Z,974.55
2019-04-28T04:06:40.855Z,974.58
2019-04-28T04:07:42.774Z,974.58
2019-04-28T04:08:40.774Z,974.56
2019-04-28T04:09:41.381Z,974.56
2019-04-28T04:10:40.327Z,974.57
2019-04-28T04:11:41.109Z,974.60
2019-04-28T04:12:41.233Z,974.58
2019-04-28T04:13:41.582Z,974.58
2019-04-28T04:14:41.155Z,974.57
2019-04-28T04:15:41.224Z,974.58
2019-04-28T04:16:40.505Z,974.56
2019-04-28T04:17:41.299Z,974.59
2019-04-28T04:18:40.738Z,974.57
2019-04-28T04:19:40.676Z,974.61
2019-04-28T04:20:40.888Z,974.63
2019-04-28T04:21:40.785Z,974.61
2019-04-28T04:22:41.169Z,974.62
2019-04-28T04:23:41.102Z,974.63
2019-04-28T04:24:40.339Z,974.59
2019-04-28T04:25:41.688Z,974.67
2019-04-28T04:26:40.970Z,974.64
2019-04-28T04:27:40.657Z,974.61
2019-04-28T04:28:41.641Z,974.63
2019-04-28T04:29:43.291Z,974.62
2019-04-28T04:30:41.007Z,974.59
2019-04-28T04:31:41.291Z,974.63
2019-04-28T04:32:41.197Z,974.64
2019-04-28T04:33:41.111Z,974.70
2019-04-28T04:34:40.767Z,974.64
2019-04-28T04:35:41.154Z,974.68
2019-04-28T04:36:41.752Z,974.69
2019-04-28T04:37:40.619Z,974.68
2019-04-28T04:38:43.347Z,974.71
2019-04-28T04:39:40.652Z,974.74
2019-04-28T04:40:41.195Z,974.74
2019-04-28T04:41:42.888Z,974.75
2019-04-28T04:42:40.329Z,974.77
2019-04-28T04:43:41.522Z,974.76
2019-04-28T04:44:41.554Z,974.81
2019-04-28T04:45:40.523Z,974.81
2019-04-28T04:46:41.488Z,974.86
2019-04-28T04:47:40.676Z,974.90
2019-04-28T04:48:40.801Z,974.88
2019-04-28T04:49:40.471Z,974.93
2019-04-28T04:50:41.175Z,974.93
2019-04-28T04:51:43.462Z,974.94
2019-04-28T04:52:40.284Z,974.94
2019-04-28T04:53:40.730Z,974.90
2019-04-28T04:54:40.111Z,974.94
2019-04-28T04:55:40.754Z,974.91
2019-04-28T04:56:40.137Z,974.92
2019-04-28T04:57:40.740Z,974.93
2019-04-28T04:58:40.657Z,974.96
2019-04-28T04:59:40.122Z,974.97
2019-04-28T05:00:40.492Z,974.97
2019-04-28T05:01:40.757Z,974.98
2019-04-28T05:02:41.007Z,974.96
2019-04-28T05:03:39.682Z,974.98
2019-04-28T05:04:39.603Z,975.03
2019-04-28T05:05:40.342Z,974.99
2019-04-28T05:06:39.777Z,975.04
2019-04-28T05:07:39.651Z,975.03
2019-04-28T05:08:39.991Z,975.05
2019-04-28T05:09:39.521Z,975.12
2019-04-28T05:10:40.385Z,975.15
2019-04-28T05:11:39.994Z,975.14
2019-04-28T05:12:40.369Z,975.16
2019-04-28T05:13:39.948Z,975.17
2019-04-28T05:14:39.558Z,975.16
2019-04-28T05:15:40.088Z,975.18
2019-04-28T05:16:39.838Z,975.17
2019-04-28T05:17:40.174Z,975.20
2019-04-28T05:18:39.378Z,975.23
2019-04-28T05:19:40.190Z,975.20
2019-04-28T05:20:40.418Z,975.27
2019-04-28T05:21:40.142Z,975.24
2019-04-28T05:22:40.001Z,975.26
2019-04-28T05:23:39.973Z,975.29
2019-04-28T05:24:40.255Z,975.28
2019-04-28T05:25:39.575Z,975.27
2019-04-28T05:26:42.520Z,975.30
2019-04-28T05:27:39.930Z,975.30
2019-04-28T05:28:44.009Z,975.32
2019-04-28T05:29:39.820Z,975.37
2019-04-28T05:30:39.693Z,975.41
2019-04-28T05:31:40.132Z,975.38
2019-04-28T05:32:43.144Z,975.41
2019-04-28T05:33:39.593Z,975.41
2019-04-28T05:34:41.423Z,975.44
2019-04-28T05:35:39.727Z,975.45
2019-04-28T05:36:42.480Z,975.48
2019-04-28T05:37:40.452Z,975.42
2019-04-28T05:38:40.164Z,975.44
2019-04-28T05:39:40.469Z,975.41
2019-04-28T05:40:39.898Z,975.48
2019-04-28T05:41:40.023Z,975.46
2019-04-28T05:42:39.394Z,975.42
2019-04-28T05:43:40.437Z,975.44
2019-04-28T05:44:40.622Z,975.42
2019-04-28T05:45:39.756Z,975.46
2019-04-28T05:46:40.217Z,975.41
2019-04-28T05:47:40.637Z,975.43
2019-04-28T05:48:40.692Z,975.43
2019-04-28T05:49:39.717Z,975.40
2019-04-28T05:50:40.100Z,975.38
2019-04-28T05:51:40.246Z,975.39
2019-04-28T05:52:40.302Z,975.39
2019-04-28T05:53:40.301Z,975.40
2019-04-28T05:54:40.347Z,975.43
2019-04-28T05:55:39.378Z,975.45
2019-04-28T05:56:39.722Z,975.46
2019-04-28T05:57:39.771Z,975.45
2019-04-28T05:58:40.210Z,975.46
2019-04-28T05:59:40.336Z,975.54
2019-04-28T06:00:39.969Z,975.49
2019-04-28T06:01:40.515Z,975.55
2019-04-28T06:02:39.658Z,975.52
2019-04-28T06:03:40.428Z,975.50
2019-04-28T06:04:40.472Z,975.53
2019-04-28T06:05:39.494Z,975.53
2019-04-28T06:06:40.409Z,975.51
2019-04-28T06:07:40.424Z,975.54
2019-04-28T06:08:40.630Z,975.54
2019-04-28T06:09:39.895Z,975.59
2019-04-28T06:10:39.947Z,975.63
2019-04-28T06:11:39.798Z,975.58
2019-04-28T06:12:40.406Z,975.60
2019-04-28T06:13:40.168Z,975.62
2019-04-28T06:14:40.284Z,975.66
2019-04-28T06:15:39.704Z,975.64
2019-04-28T06:16:40.599Z,975.67
2019-04-28T06:17:39.677Z,975.67
2019-04-28T06:18:39.490Z,975.71
2019-04-28T06:19:40.279Z,975.67
2019-04-28T06:20:40.520Z,975.68
2019-04-28T06:21:38.731Z,975.72
2019-04-28T06:22:38.726Z,975.73
2019-04-28T06:23:38.726Z,975.78
2019-04-28T06:24:38.756Z,975.77
2019-04-28T06:25:38.714Z,975.78
2019-04-28T06:26:38.715Z,975.79
2019-04-28T06:27:38.710Z,975.79
2019-04-28T06:28:38.708Z,975.80
2019-04-28T06:29:38.729Z,975.84
2019-04-28T06:30:38.753Z,975.84
2019-04-28T06:31:38.704Z,975.86
2019-04-28T06:32:38.698Z,975.85
2019-04-28T06:33:38.690Z,975.84
2019-04-28T06:34:38.714Z,975.87
2019-04-28T06:35:38.694Z,975.85
2019-04-28T06:36:38.682Z,975.87
2019-04-28T06:37:38.678Z,975.85
2019-04-28T06:38:38.685Z,975.85
2019-04-28T06:39:38.702Z,975.88
2019-04-28T06:40:38.670Z,975.87
2019-04-28T06:41:38.667Z,975.89
2019-04-28T06:42:38.670Z,975.93
2019-04-28T06:43:38.667Z,975.94
2019-04-28T06:44:38.707Z,975.97
2019-04-28T06:45:38.665Z,975.99
2019-04-28T06:46:38.656Z,976.01
2019-04-28T06:47:38.666Z,976.02
2019-04-28T06:48:38.656Z,976.02
2019-04-28T06:49:38.674Z,975.99
2019-04-28T06:50:38.644Z,976.05
2019-04-28T06:51:38.637Z,975.97
2019-04-28T06:52:38.638Z,975.98
2019-04-28T06:53:38.636Z,976.03
2019-04-28T06:54:38.664Z,976.04
2019-04-28T06:55:38.652Z,976.04
2019-04-28T06:56:38.631Z,976.06
2019-04-28T06:57:38.623Z,976.08
2019-04-28T06:58:38.622Z,976.11
2019-04-28T06:59:38.623Z,976.08
2019-04-28T07:00:38.642Z,976.13
2019-04-28T07:01:38.614Z,976.13
2019-04-28T07:02:38.610Z,976.10
2019-04-28T07:03:38.606Z,976.11
2019-04-28T07:04:38.636Z,976.10
2019-04-28T07:05:38.630Z,976.08
2019-04-28T07:06:38.600Z,976.10
2019-04-28T07:07:38.599Z,976.09
2019-04-28T07:08:38.600Z,976.11
2019-04-28T07:09:38.587Z,976.12
2019-04-28T07:10:38.617Z,976.09
2019-04-28T07:11:38.587Z,976.08
2019-04-28T07:12:38.590Z,976.11
2019-04-28T07:13:38.584Z,976.10
2019-04-28T07:14:38.580Z,976.08
2019-04-28T07:15:38.607Z,976.08
2019-04-28T07:16:38.581Z,976.11
2019-04-28T07:17:38.579Z,976.13
2019-04-28T07:18:38.570Z,976.12
2019-04-28T07:19:38.569Z,976.16
2019-04-28T07:20:38.594Z,976.12
2019-04-28T07:21:38.563Z,976.12
2019-04-28T07:22:38.560Z,976.13
2019-04-28T07:23:38.559Z,976.12
2019-04-28T07:24:38.582Z,976.12
2019-04-28T07:25:38.579Z,976.11
2019-04-28T07:26:38.547Z,976.14
2019-04-28T07:27:38.548Z,976.14
2019-04-28T07:28:38.548Z,976.15
2019-04-28T07:29:38.544Z,976.16
2019-04-28T07:30:38.568Z,976.20
2019-04-28T07:31:38.540Z,976.20
2019-04-28T07:32:38.539Z,976.21
2019-04-28T07:33:38.536Z,976.23
2019-04-28T07:34:38.536Z,976.21
2019-04-28T07:35:38.554Z,976.23
2019-04-28T07:36:38.528Z,976.23
2019-04-28T07:37:38.524Z,976.23
2019-04-28T07:38:38.530Z,976.20
2019-04-28T07:39:38.524Z,976.22
2019-04-28T07:40:38.551Z,976.23
2019-04-28T07:41:38.523Z,976.23
2019-04-28T07:42:38.519Z,976.29
2019-04-28T07:43:38.509Z,976.28
2019-04-28T07:44:38.537Z,976.29
2019-04-28T07:45:38.535Z,976.32
2019-04-28T07:46:38.528Z,976.33
2019-04-28T07:47:38.502Z,976.34
2019-04-28T07:48:39.197Z,976.39
2019-04-28T07:49:38.498Z,976.40
2019-04-28T07:50:38.494Z,976.41
2019-04-28T07:51:38.515Z,976.44
2019-04-28T07:52:38.489Z,976.47
2019-04-28T07:53:38.485Z,976.48
2019-04-28T07:54:40.105Z,976.49
2019-04-28T07:55:38.481Z,976.52
2019-04-28T07:56:38.506Z,976.56
2019-04-28T07:57:38.485Z,976.53
2019-04-28T07:58:38.483Z,976.55
2019-04-28T07:59:38.472Z,976.54
2019-04-28T08:00:38.479Z,976.61
2019-04-28T08:01:38.499Z,976.60
2019-04-28T08:02:38.466Z,976.61
2019-04-28T08:03:48.711Z,976.62
2019-04-28T08:04:38.467Z,976.64
2019-04-28T08:05:38.462Z,976.68
2019-04-28T08:06:38.490Z,976.71
2019-04-28T08:07:38.458Z,976.67
2019-04-28T08:08:38.457Z,976.71
2019-04-28T08:09:38.459Z,976.76
2019-04-28T08:10:38.447Z,976.75
2019-04-28T08:11:38.475Z,976.78
2019-04-28T08:12:38.461Z,976.79
2019-04-28T08:13:38.439Z,976.78
2019-04-28T08:14:38.443Z,976.76
2019-04-28T08:15:38.443Z,976.76
2019-04-28T08:16:38.474Z,976.80
2019-04-28T08:17:38.437Z,976.81
2019-04-28T08:18:39.202Z,976.82
2019-04-28T08:19:38.437Z,976.84
2019-04-28T08:20:38.430Z,976.84
2019-04-28T08:21:38.455Z,976.87
2019-04-28T08:22:38.425Z,976.88
2019-04-28T08:23:46.936Z,976.91
2019-04-28T08:24:38.426Z,976.92
2019-04-28T08:25:38.414Z,976.93
2019-04-28T08:26:38.451Z,976.97
2019-04-28T08:27:38.415Z,976.97
2019-04-28T08:28:38.415Z,976.95
2019-04-28T08:29:38.411Z,976.94
2019-04-28T08:30:38.411Z,976.97
2019-04-28T08:31:38.439Z,976.95
2019-04-28T08:32:38.413Z,976.96
2019-04-28T08:33:38.403Z,976.98
2019-04-28T08:34:38.411Z,976.96
2019-04-28T08:35:38.403Z,977.00
2019-04-28T08:36:38.445Z,976.99
2019-04-28T08:37:38.398Z,977.02
2019-04-28T08:38:38.396Z,977.02
2019-04-28T08:39:38.399Z,977.02
2019-04-28T08:40:38.502Z,977.08
2019-04-28T08:41:38.417Z,977.08
2019-04-28T08:42:38.385Z,977.04
2019-04-28T08:43:38.390Z,977.07
2019-04-28T08:44:38.383Z,977.10
2019-04-28T08:45:38.380Z,977.05
2019-04-28T08:46:38.407Z,977.07
2019-04-28T08:47:38.377Z,977.12
2019-04-28T08:48:38.380Z,977.17
2019-04-28T08:49:38.377Z,977.09
2019-04-28T08:50:38.369Z,977.10
2019-04-28T08:51:38.393Z,977.13
2019-04-28T08:52:38.394Z,977.13
2019-04-28T08:53:38.413Z,977.13
2019-04-28T08:54:38.358Z,977.21
2019-04-28T08:55:38.357Z,977.20
2019-04-28T08:56:38.356Z,977.22
2019-04-28T08:57:38.379Z,977.25
2019-04-28T08:58:38.358Z,977.22
2019-04-28T08:59:38.349Z,977.24
2019-04-28T09:00:38.347Z,977.24
2019-04-28T09:01:38.377Z,977.23
2019-04-28T09:02:38.371Z,977.24
2019-04-28T09:03:38.341Z,977.28
2019-04-28T09:04:38.338Z,977.31
2019-04-28T09:05:38.333Z,977.29
2019-04-28T09:06:38.336Z,977.31
2019-04-28T09:07:38.358Z,977.28
2019-04-28T09:08:38.333Z,977.31
2019-04-28T09:09:38.325Z,977.31
2019-04-28T09:10:38.338Z,977.33
2019-04-28T09:11:38.321Z,977.34
2019-04-28T09:12:38.347Z,977.37
2019-04-28T09:13:38.316Z,977.37
2019-04-28T09:14:38.310Z,977.39
2019-04-28T09:15:38.312Z,977.43
2019-04-28T09:16:38.309Z,977.42
2019-04-28T09:17:38.336Z,977.43
2019-04-28T09:18:38.306Z,977.45
2019-04-28T09:19:38.308Z,977.44
2019-04-28T09:20:38.295Z,977.45
2019-04-28T09:21:38.293Z,977.43
2019-04-28T09:22:38.313Z,977.45
2019-04-28T09:23:38.290Z,977.42
2019-04-28T09:24:38.289Z,977.46
2019-04-28T09:25:38.288Z,977.42
2019-04-28T09:26:38.282Z,977.43
2019-04-28T09:27:38.312Z,977.42
2019-04-28T09:28:38.307Z,977.41
2019-04-28T09:29:38.275Z,977.38
2019-04-28T09:30:38.269Z,977.36
2019-04-28T09:31:38.266Z,977.39
2019-04-28T09:32:38.270Z,977.43
2019-04-28T09:33:38.294Z,977.39
2019-04-28T09:34:38.268Z,977.43
2019-04-28T09:35:38.264Z,977.41
2019-04-28T09:36:38.259Z,977.45
2019-04-28T09:37:38.261Z,977.43
2019-04-28T09:38:38.283Z,977.44
2019-04-28T09:39:38.251Z,977.44
2019-04-28T09:40:38.249Z,977.47
2019-04-28T09:41:38.251Z,977.45
2019-04-28T09:42:38.242Z,977.46
2019-04-28T09:43:38.275Z,977.45
2019-04-28T09:44:38.238Z,977.41
2019-04-28T09:45:38.235Z,977.41
2019-04-28T09:46:38.235Z,977.40
2019-04-28T09:47:38.232Z,977.40
2019-04-28T09:48:38.252Z,977.36
2019-04-28T09:49:38.227Z,977.39
2019-04-28T09:50:38.231Z,977.36
2019-04-28T09:51:38.228Z,977.37
2019-04-28T09:52:38.227Z,977.35
2019-04-28T09:53:38.251Z,977.35
2019-04-28T09:54:38.219Z,977.34
2019-04-28T09:55:38.213Z,977.35
2019-04-28T09:56:38.219Z,977.36
2019-04-28T09:57:38.211Z,977.31
2019-04-28T09:58:38.237Z,977.33
2019-04-28T09:59:38.212Z,977.30
2019-04-28T10:00:38.207Z,977.31
2019-04-28T10:01:38.223Z,977.30
2019-04-28T10:02:38.206Z,977.31
2019-04-28T10:03:38.232Z,977.30
2019-04-28T10:04:41.618Z,977.31
2019-04-28T10:05:38.201Z,977.36
2019-04-28T10:06:38.208Z,977.33
2019-04-28T10:07:38.196Z,977.35
2019-04-28T10:08:38.222Z,977.33
2019-04-28T10:09:38.201Z,977.38
2019-04-28T10:10:38.189Z,977.31
2019-04-28T10:11:38.204Z,977.36
2019-04-28T10:12:38.193Z,977.38
2019-04-28T10:13:38.226Z,977.52
2019-04-28T10:14:38.192Z,977.50
2019-04-28T10:15:38.703Z,977.40
2019-04-28T10:16:38.246Z,977.50
2019-04-28T10:17:38.193Z,977.61
2019-04-28T10:18:38.232Z,977.64
2019-04-28T10:19:38.201Z,977.50
2019-04-28T10:20:38.195Z,977.64
2019-04-28T10:21:38.196Z,977.57
2019-04-28T10:22:38.194Z,977.67
2019-04-28T10:23:38.225Z,977.75
2019-04-28T10:24:38.197Z,977.98
2019-04-28T10:25:38.214Z,978.05
2019-04-28T10:26:38.200Z,977.85
2019-04-28T10:27:38.202Z,977.82
2019-04-28T10:28:38.240Z,978.15
2019-04-28T10:29:38.206Z,978.03
2019-04-28T10:30:38.209Z,977.98
2019-04-28T10:31:38.209Z,977.94
2019-04-28T10:32:38.214Z,978.00
2019-04-28T10:33:38.249Z,978.03
2019-04-28T10:34:38.221Z,978.06
2019-04-28T10:35:38.225Z,978.03
2019-04-28T10:36:38.229Z,978.12
2019-04-28T10:37:38.231Z,978.24
2019-04-28T10:38:38.273Z,978.27
2019-04-28T10:39:38.253Z,978.25
2019-04-28T10:40:38.249Z,978.27
2019-04-28T10:41:38.254Z,978.27
2019-04-28T10:42:38.259Z,978.27
2019-04-28T10:43:38.301Z,978.22
2019-04-28T10:44:38.274Z,978.23
2019-04-28T10:45:38.279Z,978.27
2019-04-28T10:46:38.286Z,978.25
2019-04-28T10:47:38.294Z,978.23
2019-04-28T10:48:38.340Z,978.10
2019-04-28T10:49:38.338Z,978.01
2019-04-28T10:50:38.314Z,978.09
2019-04-28T10:51:38.327Z,978.18
2019-04-28T10:52:38.335Z,978.15
2019-04-28T10:53:38.342Z,978.15
2019-04-28T10:54:38.388Z,978.13
2019-04-28T10:55:38.368Z,978.14
2019-04-28T10:56:38.371Z,978.17
2019-04-28T10:57:38.378Z,978.16
2019-04-28T10:58:38.414Z,978.11
2019-04-28T10:59:38.395Z,978.15
2019-04-28T11:00:38.406Z,978.15
2019-04-28T11:01:38.415Z,978.21
2019-04-28T11:02:38.429Z,978.16
2019-04-28T11:03:38.464Z,978.11
2019-04-28T11:04:38.449Z,978.15
2019-04-28T11:05:38.455Z,978.13
2019-04-28T11:06:38.472Z,978.11
2019-04-28T11:07:38.481Z,978.15
2019-04-28T11:08:38.515Z,978.12
2019-04-28T11:09:38.499Z,978.17
2019-04-28T11:10:38.507Z,978.17
2019-04-28T11:11:38.522Z,978.06
2019-04-28T11:12:38.531Z,978.08
2019-04-28T11:13:38.567Z,978.01
2019-04-28T11:14:38.619Z,978.09
2019-04-28T11:15:38.591Z,978.11
2019-04-28T11:16:38.581Z,978.16
2019-04-28T11:17:38.584Z,978.20
2019-04-28T11:18:38.636Z,978.22
2019-04-28T11:19:38.636Z,978.26
2019-04-28T11:20:38.619Z,978.28
2019-04-28T11:21:38.636Z,978.32
2019-04-28T11:22:38.643Z,978.26
2019-04-28T11:23:38.684Z,978.24
2019-04-28T11:24:38.697Z,978.21
2019-04-28T11:25:38.687Z,978.19
2019-04-28T11:26:38.694Z,978.20
2019-04-28T11:27:38.708Z,978.22
2019-04-28T11:28:38.749Z,978.24
2019-04-28T11:29:38.757Z,978.24
2019-04-28T11:30:38.746Z,978.27
2019-04-28T11:31:38.768Z,978.27
2019-04-28T11:32:38.783Z,978.19
2019-04-28T11:33:38.815Z,977.92
2019-04-28T11:34:38.837Z,977.90
2019-04-28T11:35:38.813Z,977.90
2019-04-28T11:36:38.827Z,977.87
2019-04-28T11:37:38.838Z,977.98
2019-04-28T11:38:38.877Z,978.07
2019-04-28T11:39:38.901Z,978.03
2019-04-28T11:40:38.877Z,978.06
2019-04-28T11:41:38.886Z,978.09
2019-04-28T11:42:38.898Z,977.92
2019-04-28T11:43:38.938Z,977.93
2019-04-28T11:44:38.950Z,977.94
2019-04-28T11:45:38.928Z,977.90
2019-04-28T11:46:38.939Z,977.79
2019-04-28T11:47:38.948Z,977.90
2019-04-28T11:48:38.994Z,977.85
2019-04-28T11:49:38.998Z,977.70
2019-04-28T11:50:38.975Z,977.67
2019-04-28T11:51:38.982Z,977.70
2019-04-28T11:52:38.997Z,977.67
2019-04-28T11:53:39.605Z,977.59
2019-04-28T11:54:39.038Z,977.61
2019-04-28T11:55:39.007Z,977.77
2019-04-28T11:56:41.491Z,977.75
2019-04-28T11:57:39.021Z,977.77
2019-04-28T11:58:39.017Z,977.76
2019-04-28T11:59:39.060Z,977.65
2019-04-28T12:00:39.027Z,977.61
2019-04-28T12:01:39.739Z,977.51
2019-04-28T12:02:39.031Z,977.56
2019-04-28T12:03:39.039Z,977.54
2019-04-28T12:04:39.060Z,977.46
2019-04-28T12:05:39.037Z,977.51
2019-04-28T12:06:39.068Z,977.50
2019-04-28T12:07:39.037Z,977.44
2019-04-28T12:08:39.037Z,977.52
2019-04-28T12:09:39.040Z,977.47
2019-04-28T12:10:39.080Z,977.36
2019-04-28T12:11:39.040Z,977.45
2019-04-28T12:12:39.044Z,977.37
2019-04-28T12:13:39.049Z,977.51
2019-04-28T12:14:39.044Z,977.41
2019-04-28T12:15:39.074Z,977.38
2019-04-28T12:16:39.048Z,977.47
2019-04-28T12:17:39.045Z,977.61
2019-04-28T12:18:39.044Z,977.50
2019-04-28T12:19:39.041Z,977.64
2019-04-28T12:20:39.069Z,977.53
2019-04-28T12:21:39.129Z,977.54
2019-04-28T12:22:39.041Z,977.60
2019-04-28T12:23:39.038Z,977.44
2019-04-28T12:24:39.044Z,977.40
2019-04-28T12:25:39.057Z,977.40
2019-04-28T12:26:39.036Z,977.44
2019-04-28T12:27:39.037Z,977.48
2019-04-28T12:28:39.042Z,977.51